Time;durP1;ratioP1;P1;durP2;ratioP2;P2;SDS_P1;SDS_P2;PMS_P1;PMS_P2;Temp;Humidity;BMP_temperature;BMP_pressure;BME280_temperature;BME280_humidity;BME280_pressure;Samples;Min_cycle;Max_cycle;Signal;HPM_P1;HPM_P2
2023/10/31 00:02:19;;;;;;;0.10;0.10;;;;;;;;;;10340295;28;20092;-72
2023/10/31 00:07:20;;;;;;;0.10;0.10;;;;;;;;;;10336637;28;20026;-70
2023/10/31 00:12:20;;;;;;;0.00;0.00;;;;;;;;;;10335947;28;20022;-69
2023/10/31 00:17:20;;;;;;;0.00;0.00;;;;;;;;;;10341097;28;20029;-70
2023/10/31 00:22:20;;;;;;;0.10;0.10;;;;;;;;;;10340441;28;20072;-69
2023/10/31 00:27:20;;;;;;;0.05;0.05;;;;;;;;;;10340848;28;20093;-70
2023/10/31 00:32:21;;;;;;;0.10;0.10;;;;;;;;;;10349182;28;20025;-70
2023/10/31 00:37:21;;;;;;;0.10;0.10;;;;;;;;;;10338516;28;20026;-69
2023/10/31 00:42:21;;;;;;;0.10;0.10;;;;;;;;;;10349257;28;20106;-69
2023/10/31 00:47:21;;;;;;;0.00;0.00;;;;;;;;;;10345149;28;20053;-69
2023/10/31 00:52:21;;;;;;;0.10;0.10;;;;;;;;;;10345233;28;20768;-69
2023/10/31 00:57:22;;;;;;;0.05;0.05;;;;;;;;;;10344331;28;20492;-70
2023/10/31 01:02:22;;;;;;;0.10;0.10;;;;;;;;;;10347108;28;20037;-69
2023/10/31 01:07:22;;;;;;;0.10;0.10;;;;;;;;;;10349432;28;20519;-69
2023/10/31 01:12:22;;;;;;;0.10;0.10;;;;;;;;;;10343826;28;20506;-69
2023/10/31 01:17:22;;;;;;;0.00;0.00;;;;;;;;;;10350180;28;20030;-69
2023/10/31 01:22:22;;;;;;;0.10;0.10;;;;;;;;;;10343112;28;20025;-70
2023/10/31 01:27:23;;;;;;;0.10;0.10;;;;;;;;;;10341598;28;20025;-69
2023/10/31 01:32:23;;;;;;;0.10;0.10;;;;;;;;;;10343616;28;20018;-69
2023/10/31 01:37:23;;;;;;;0.10;0.10;;;;;;;;;;10344498;28;20088;-70
2023/10/31 01:42:23;;;;;;;0.10;0.10;;;;;;;;;;10341856;28;20029;-70
2023/10/31 01:47:24;;;;;;;0.10;0.10;;;;;;;;;;10345341;28;20028;-69
2023/10/31 01:52:25;;;;;;;0.10;0.10;;;;;;;;;;10337297;28;20026;-69
2023/10/31 01:57:25;;;;;;;0.00;0.00;;;;;;;;;;10338299;28;20475;-69
2023/10/31 02:02:27;;;;;;;0.10;0.10;;;;;;;;;;10345950;28;20028;-70
2023/10/31 02:07:27;;;;;;;0.00;0.00;;;;;;;;;;10363825;28;20030;-68
2023/10/31 02:12:33;;;;;;;0.03;0.03;;;;;;;;;;10358452;28;20456;-69
2023/10/31 02:17:33;;;;;;;0.10;0.10;;;;;;;;;;10368627;28;20691;-69
2023/10/31 02:22:34;;;;;;;0.10;0.10;;;;;;;;;;10365735;28;20022;-69
2023/10/31 02:27:34;;;;;;;0.00;0.00;;;;;;;;;;10369317;28;20108;-69
2023/10/31 02:32:34;;;;;;;0.10;0.10;;;;;;;;;;10367525;28;20033;-70
2023/10/31 02:37:34;;;;;;;0.00;0.00;;;;;;;;;;10369600;28;20018;-69
2023/10/31 02:42:34;;;;;;;0.10;0.10;;;;;;;;;;10359957;28;20021;-70
2023/10/31 02:47:35;;;;;;;0.00;0.00;;;;;;;;;;10358321;28;20028;-70
2023/10/31 02:52:35;;;;;;;0.10;0.10;;;;;;;;;;10377654;28;20079;-69
2023/10/31 02:57:36;;;;;;;0.00;0.00;;;;;;;;;;10372153;28;20430;-69
2023/10/31 03:02:36;;;;;;;0.10;0.10;;;;;;;;;;10360000;28;20068;-70
2023/10/31 03:07:36;;;;;;;0.10;0.10;;;;;;;;;;10373045;28;20026;-70
2023/10/31 03:12:36;;;;;;;0.00;0.00;;;;;;;;;;10372664;28;20010;-70
2023/10/31 03:17:37;;;;;;;0.10;0.10;;;;;;;;;;10373341;28;20037;-70
2023/10/31 03:22:37;;;;;;;0.00;0.00;;;;;;;;;;10361616;28;20014;-69
2023/10/31 03:27:37;;;;;;;0.00;0.00;;;;;;;;;;10376411;28;20037;-69
2023/10/31 03:32:37;;;;;;;0.00;0.00;;;;;;;;;;10371654;28;20119;-70
2023/10/31 03:37:41;;;;;;;0.10;0.10;;;;;;;;;;10364322;28;20027;-69
2023/10/31 03:42:41;;;;;;;0.10;0.10;;;;;;;;;;10368336;28;20010;-69
2023/10/31 03:47:41;;;;;;;0.00;0.00;;;;;;;;;;10367035;28;20022;-70
2023/10/31 03:52:41;;;;;;;0.00;0.00;;;;;;;;;;10363314;28;20027;-69
2023/10/31 03:57:41;;;;;;;0.10;0.10;;;;;;;;;;10366676;28;20103;-70
2023/10/31 04:02:42;;;;;;;0.10;0.10;;;;;;;;;;10370368;28;20073;-70
2023/10/31 04:07:43;;;;;;;0.10;0.10;;;;;;;;;;10370618;28;20089;-69
2023/10/31 04:12:43;;;;;;;0.10;0.10;;;;;;;;;;10368452;28;20044;-70
2023/10/31 04:17:43;;;;;;;0.10;0.10;;;;;;;;;;10375915;28;20032;-70
2023/10/31 04:22:43;;;;;;;0.10;0.10;;;;;;;;;;10378286;28;20034;-70
2023/10/31 04:27:43;;;;;;;0.10;0.10;;;;;;;;;;10386570;28;20026;-70
2023/10/31 04:32:44;;;;;;;0.10;0.10;;;;;;;;;;10367294;28;20030;-69
2023/10/31 04:37:44;;;;;;;0.00;0.00;;;;;;;;;;10371626;28;20026;-69
2023/10/31 04:42:46;;;;;;;0.10;0.10;;;;;;;;;;10367265;28;20518;-70
2023/10/31 04:47:46;;;;;;;0.00;0.00;;;;;;;;;;10354630;28;20029;-69
2023/10/31 04:52:47;;;;;;;0.10;0.10;;;;;;;;;;10373769;28;20038;-70
2023/10/31 04:57:47;;;;;;;0.10;0.10;;;;;;;;;;10368466;28;20037;-70
2023/10/31 05:02:47;;;;;;;0.10;0.10;;;;;;;;;;10367476;28;20084;-69
2023/10/31 05:07:47;;;;;;;0.10;0.10;;;;;;;;;;10367664;28;20037;-69
2023/10/31 05:12:47;;;;;;;0.10;0.10;;;;;;;;;;10359246;28;20036;-69
2023/10/31 05:17:47;;;;;;;0.00;0.00;;;;;;;;;;10363573;28;20023;-69
2023/10/31 05:22:48;;;;;;;0.10;0.10;;;;;;;;;;10364991;28;20022;-70
2023/10/31 05:27:48;;;;;;;0.10;0.10;;;;;;;;;;10370346;28;20026;-69
2023/10/31 05:32:49;;;;;;;0.10;0.10;;;;;;;;;;10369402;28;20041;-70
2023/10/31 05:37:50;;;;;;;0.08;0.08;;;;;;;;;;10367228;28;20037;-69
2023/10/31 05:42:50;;;;;;;0.10;0.10;;;;;;;;;;10357900;28;20301;-69
2023/10/31 05:47:50;;;;;;;0.00;0.00;;;;;;;;;;10354333;28;20025;-69
2023/10/31 05:52:50;;;;;;;0.10;0.10;;;;;;;;;;10361991;28;20041;-69
2023/10/31 05:57:50;;;;;;;0.00;0.00;;;;;;;;;;10363162;28;20026;-69
2023/10/31 06:02:50;;;;;;;0.03;0.03;;;;;;;;;;10358045;28;20070;-69
2023/10/31 06:07:51;;;;;;;0.10;0.10;;;;;;;;;;10360785;28;20030;-69
2023/10/31 06:12:51;;;;;;;0.10;0.10;;;;;;;;;;10356759;28;20101;-69
2023/10/31 06:17:52;;;;;;;0.10;0.10;;;;;;;;;;10357556;28;20046;-69
2023/10/31 06:22:52;;;;;;;0.05;0.05;;;;;;;;;;10355999;28;20029;-69
2023/10/31 06:27:52;;;;;;;0.00;0.00;;;;;;;;;;10358575;28;20026;-69
2023/10/31 06:32:53;;;;;;;0.03;0.03;;;;;;;;;;10352025;28;20571;-69
2023/10/31 06:37:54;;;;;;;0.10;0.10;;;;;;;;;;10353132;28;20030;-69
2023/10/31 06:42:55;;;;;;;0.00;0.00;;;;;;;;;;10355307;28;20479;-69
2023/10/31 06:47:55;;;;;;;0.00;0.00;;;;;;;;;;10354776;28;20023;-69
2023/10/31 06:52:55;;;;;;;0.10;0.10;;;;;;;;;;10363679;28;20034;-69
2023/10/31 06:57:55;;;;;;;0.10;0.10;;;;;;;;;;10364997;28;20026;-69
2023/10/31 07:02:55;;;;;;;0.00;0.00;;;;;;;;;;10359721;28;20046;-69
2023/10/31 07:07:56;;;;;;;0.10;0.10;;;;;;;;;;10355331;28;20026;-69
2023/10/31 07:12:56;;;;;;;0.10;0.10;;;;;;;;;;10361614;28;20023;-69
2023/10/31 07:17:56;;;;;;;0.10;0.10;;;;;;;;;;10357909;28;20022;-69
2023/10/31 07:22:56;;;;;;;0.10;0.10;;;;;;;;;;10361058;28;20010;-69
2023/10/31 07:27:56;;;;;;;0.10;0.10;;;;;;;;;;10361262;28;20514;-70
2023/10/31 07:32:57;;;;;;;0.00;0.00;;;;;;;;;;10362947;28;20088;-69
2023/10/31 07:37:57;;;;;;;0.10;0.10;;;;;;;;;;10336248;28;20030;-69
2023/10/31 07:42:57;;;;;;;0.00;0.00;;;;;;;;;;10362863;28;20029;-69
2023/10/31 07:47:57;;;;;;;0.00;0.00;;;;;;;;;;10360555;28;20084;-69
2023/10/31 07:52:57;;;;;;;0.10;0.10;;;;;;;;;;10364963;28;20522;-69
2023/10/31 07:57:57;;;;;;;0.10;0.10;;;;;;;;;;10368743;28;20074;-68
2023/10/31 08:02:57;;;;;;;0.10;0.10;;;;;;;;;;10364562;28;20014;-69
2023/10/31 08:07:58;;;;;;;0.00;0.00;;;;;;;;;;10365421;28;20026;-69
2023/10/31 08:12:58;;;;;;;0.00;0.00;;;;;;;;;;10364987;28;20030;-68
2023/10/31 08:17:58;;;;;;;0.03;0.03;;;;;;;;;;10362650;28;20028;-69
2023/10/31 08:22:58;;;;;;;0.00;0.00;;;;;;;;;;10363957;28;20023;-69
2023/10/31 08:27:59;;;;;;;0.10;0.10;;;;;;;;;;10362821;28;20561;-69
2023/10/31 08:32:59;;;;;;;0.00;0.00;;;;;;;;;;10359493;28;20541;-68
2023/10/31 08:37:59;;;;;;;0.10;0.10;;;;;;;;;;10360917;28;20035;-69
2023/10/31 08:43:00;;;;;;;0.10;0.10;;;;;;;;;;10358412;28;20023;-69
2023/10/31 08:48:00;;;;;;;0.00;0.00;;;;;;;;;;10360747;28;20164;-69
2023/10/31 08:53:01;;;;;;;0.10;0.10;;;;;;;;;;10358775;28;20125;-69
2023/10/31 08:58:01;;;;;;;0.00;0.00;;;;;;;;;;10353488;28;20522;-70
2023/10/31 09:03:01;;;;;;;0.10;0.10;;;;;;;;;;10357377;28;20511;-69
2023/10/31 09:08:01;;;;;;;0.00;0.00;;;;;;;;;;10355929;28;20019;-69
2023/10/31 09:13:02;;;;;;;0.10;0.10;;;;;;;;;;10353595;28;20022;-69
2023/10/31 09:18:02;;;;;;;0.10;0.10;;;;;;;;;;10352706;28;20025;-70
2023/10/31 09:23:02;;;;;;;0.00;0.00;;;;;;;;;;10354300;28;20019;-69
2023/10/31 09:28:02;;;;;;;0.10;0.10;;;;;;;;;;10352188;28;20045;-68
2023/10/31 09:33:03;;;;;;;0.10;0.10;;;;;;;;;;10353082;28;20018;-68
2023/10/31 09:38:03;;;;;;;0.10;0.10;;;;;;;;;;10350913;28;20022;-69
2023/10/31 09:43:03;;;;;;;0.00;0.00;;;;;;;;;;10356383;28;20403;-69
2023/10/31 09:48:03;;;;;;;0.10;0.10;;;;;;;;;;10349333;28;20033;-69
2023/10/31 09:53:05;;;;;;;0.10;0.10;;;;;;;;;;10346868;28;20034;-68
2023/10/31 09:58:05;;;;;;;0.10;0.10;;;;;;;;;;10347075;28;20682;-68
2023/10/31 10:03:11;;;;;;;0.10;0.10;;;;;;;;;;10350088;28;20026;-68
2023/10/31 10:08:11;;;;;;;0.10;0.10;;;;;;;;;;10345926;28;20076;-68
2023/10/31 10:13:12;;;;;;;0.10;0.10;;;;;;;;;;10344613;28;20105;-68
2023/10/31 10:18:24;;;;;;;0.10;0.10;;;;;;;;;;10347348;28;20022;-68
2023/10/31 10:23:25;;;;;;;0.10;0.10;;;;;;;;;;10347034;28;21563;-69
2023/10/31 10:28:26;;;;;;;0.00;0.00;;;;;;;;;;10343222;28;20014;-69
2023/10/31 10:33:26;;;;;;;0.00;0.00;;;;;;;;;;10346867;28;20018;-69
2023/10/31 10:38:28;;;;;;;0.10;0.10;;;;;;;;;;10343484;28;20029;-69
2023/10/31 10:43:31;;;;;;;0.00;0.00;;;;;;;;;;10343484;28;20038;-69
2023/10/31 10:48:34;;;;;;;0.10;0.10;;;;;;;;;;10342760;28;20029;-69
2023/10/31 10:53:35;;;;;;;0.10;0.10;;;;;;;;;;10340135;28;20344;-69
2023/10/31 10:58:59;;;;;;;0.10;0.10;;;;;;;;;;10346869;28;20368;-69
2023/10/31 11:04:00;;;;;;;0.00;0.00;;;;;;;;;;10345265;28;20069;-69
2023/10/31 11:09:02;;;;;;;0.00;0.00;;;;;;;;;;10346678;28;20066;-70
2023/10/31 11:14:02;;;;;;;0.00;0.00;;;;;;;;;;10338828;28;20018;-71
2023/10/31 11:19:03;;;;;;;0.10;0.10;;;;;;;;;;10360640;28;20018;-73
2023/10/31 11:24:04;;;;;;;0.10;0.10;;;;;;;;;;10351978;28;20050;-70
2023/10/31 11:29:05;;;;;;;0.10;0.10;;;;;;;;;;10341785;28;20010;-68
2023/10/31 11:34:05;;;;;;;0.10;0.10;;;;;;;;;;10347246;28;20018;-70
2023/10/31 11:39:13;;;;;;;0.10;0.10;;;;;;;;;;10341638;28;20015;-71
2023/10/31 11:44:14;;;;;;;0.10;0.10;;;;;;;;;;10346536;28;20011;-70
2023/10/31 11:49:14;;;;;;;0.10;0.10;;;;;;;;;;10339450;28;20113;-68
2023/10/31 11:54:15;;;;;;;0.10;0.10;;;;;;;;;;10341061;28;20469;-68
2023/10/31 11:59:15;;;;;;;0.10;0.10;;;;;;;;;;10339193;28;20022;-68
2023/10/31 12:04:23;;;;;;;0.00;0.00;;;;;;;;;;10349656;28;20022;-72
2023/10/31 12:09:23;;;;;;;0.10;0.10;;;;;;;;;;10344758;28;20015;-70
2023/10/31 12:14:23;;;;;;;0.00;0.00;;;;;;;;;;10342884;28;20033;-76
2023/10/31 12:19:23;;;;;;;0.00;0.00;;;;;;;;;;10366032;28;20022;-76
2023/10/31 12:24:24;;;;;;;0.00;0.00;;;;;;;;;;10366356;28;20040;-76
2023/10/31 12:29:24;;;;;;;0.00;0.00;;;;;;;;;;10353421;28;20430;-76
2023/10/31 12:34:24;;;;;;;0.10;0.10;;;;;;;;;;10358809;28;20022;-70
2023/10/31 12:39:25;;;;;;;0.10;0.10;;;;;;;;;;10358108;28;20029;-69
2023/10/31 12:44:26;;;;;;;0.10;0.10;;;;;;;;;;10365632;28;20024;-74
2023/10/31 12:49:27;;;;;;;0.00;0.00;;;;;;;;;;10374888;28;20096;-69
2023/10/31 12:54:31;;;;;;;0.10;0.10;;;;;;;;;;10378516;28;20022;-71
2023/10/31 12:59:32;;;;;;;0.10;0.10;;;;;;;;;;10366442;28;20026;-69
2023/10/31 13:04:32;;;;;;;0.10;0.10;;;;;;;;;;10367905;28;20099;-70
2023/10/31 13:09:34;;;;;;;0.10;0.10;;;;;;;;;;10362463;28;20438;-70
2023/10/31 13:14:36;;;;;;;0.00;0.00;;;;;;;;;;10374449;28;20074;-66
2023/10/31 13:19:36;;;;;;;0.10;0.10;;;;;;;;;;10366333;28;20079;-69
2023/10/31 13:24:36;;;;;;;0.10;0.10;;;;;;;;;;10364660;28;20144;-71
2023/10/31 13:29:38;;;;;;;0.10;0.10;;;;;;;;;;10387091;28;20235;-76
2023/10/31 13:34:38;;;;;;;0.10;0.10;;;;;;;;;;10378464;28;20100;-71
2023/10/31 13:39:38;;;;;;;0.10;0.10;;;;;;;;;;10378031;28;20112;-70
2023/10/31 13:44:38;;;;;;;0.10;0.10;;;;;;;;;;10361771;28;20040;-70
2023/10/31 13:49:38;;;;;;;0.10;0.10;;;;;;;;;;10365506;28;20041;-70
2023/10/31 13:54:39;;;;;;;0.10;0.10;;;;;;;;;;10361452;28;20447;-71
2023/10/31 13:59:40;;;;;;;0.10;0.10;;;;;;;;;;10362099;28;20514;-66
2023/10/31 14:04:40;;;;;;;0.10;0.10;;;;;;;;;;10367944;28;20033;-71
2023/10/31 14:09:40;;;;;;;0.10;0.10;;;;;;;;;;10352065;28;20018;-69
2023/10/31 14:14:40;;;;;;;0.00;0.00;;;;;;;;;;10368164;28;20076;-74
2023/10/31 14:19:40;;;;;;;0.10;0.10;;;;;;;;;;10360736;28;20040;-70
2023/10/31 14:24:40;;;;;;;0.10;0.10;;;;;;;;;;10369532;28;20044;-71
2023/10/31 14:29:41;;;;;;;0.00;0.00;;;;;;;;;;10369259;28;20026;-67
2023/10/31 14:34:41;;;;;;;0.10;0.10;;;;;;;;;;10379533;28;20484;-66
2023/10/31 14:39:41;;;;;;;0.10;0.10;;;;;;;;;;10378500;28;20068;-66
2023/10/31 14:44:43;;;;;;;0.10;0.10;;;;;;;;;;10381851;28;20014;-66
2023/10/31 14:49:44;;;;;;;0.00;0.00;;;;;;;;;;10386869;28;20029;-66
2023/10/31 14:54:44;;;;;;;0.10;0.10;;;;;;;;;;10379889;28;20084;-66
2023/10/31 14:59:44;;;;;;;0.10;0.10;;;;;;;;;;10391632;28;20026;-67
2023/10/31 15:04:44;;;;;;;0.10;0.10;;;;;;;;;;10383826;28;20406;-66
2023/10/31 15:09:45;;;;;;;0.00;0.00;;;;;;;;;;10373549;28;20034;-66
2023/10/31 15:14:45;;;;;;;0.10;0.10;;;;;;;;;;10372551;28;20045;-66
2023/10/31 15:19:46;;;;;;;0.10;0.10;;;;;;;;;;10372848;28;20430;-66
2023/10/31 15:24:46;;;;;;;0.00;0.00;;;;;;;;;;10384819;28;20022;-66
2023/10/31 15:29:46;;;;;;;0.00;0.00;;;;;;;;;;10381131;28;20068;-67
2023/10/31 15:34:47;;;;;;;0.00;0.00;;;;;;;;;;10389065;28;20083;-66
2023/10/31 15:39:48;;;;;;;0.00;0.00;;;;;;;;;;10373934;28;20452;-66
2023/10/31 15:44:48;;;;;;;0.10;0.10;;;;;;;;;;10368353;28;20018;-65
2023/10/31 15:49:48;;;;;;;0.05;0.05;;;;;;;;;;10379401;28;20018;-66
2023/10/31 15:54:49;;;;;;;0.00;0.00;;;;;;;;;;10381221;28;20033;-66
2023/10/31 15:59:49;;;;;;;0.00;0.00;;;;;;;;;;10377509;28;20032;-66
2023/10/31 16:04:49;;;;;;;0.00;0.00;;;;;;;;;;10377909;28;20018;-66
2023/10/31 16:09:49;;;;;;;0.00;0.00;;;;;;;;;;10387003;28;20023;-66
2023/10/31 16:14:50;;;;;;;0.00;0.00;;;;;;;;;;10391994;28;20018;-66
2023/10/31 16:19:50;;;;;;;0.05;0.05;;;;;;;;;;10392585;28;20054;-66
2023/10/31 16:24:51;;;;;;;0.03;0.03;;;;;;;;;;10388146;28;20165;-66
2023/10/31 16:29:51;;;;;;;0.03;0.03;;;;;;;;;;10388280;28;20026;-67
2023/10/31 16:34:51;;;;;;;0.10;0.10;;;;;;;;;;10384573;28;20029;-66
2023/10/31 16:39:52;;;;;;;0.10;0.10;;;;;;;;;;10380198;28;20021;-66
2023/10/31 16:44:52;;;;;;;0.00;0.00;;;;;;;;;;10386479;28;20029;-66
2023/10/31 16:49:52;;;;;;;0.00;0.00;;;;;;;;;;10384399;28;20021;-66
2023/10/31 16:54:53;;;;;;;0.00;0.00;;;;;;;;;;10381169;28;20046;-66
2023/10/31 16:59:53;;;;;;;0.00;0.00;;;;;;;;;;10382032;28;20022;-66
2023/10/31 17:04:56;;;;;;;0.00;0.00;;;;;;;;;;10386960;28;20025;-65
2023/10/31 17:09:56;;;;;;;0.00;0.00;;;;;;;;;;10386020;28;20021;-66
2023/10/31 17:14:58;;;;;;;0.00;0.00;;;;;;;;;;10388102;28;20492;-65
2023/10/31 17:19:58;;;;;;;0.00;0.00;;;;;;;;;;10381959;28;20051;-65
2023/10/31 17:24:59;;;;;;;0.00;0.00;;;;;;;;;;10382897;28;20018;-66
2023/10/31 17:29:59;;;;;;;0.00;0.00;;;;;;;;;;10369538;28;20018;-67
2023/10/31 17:34:59;;;;;;;0.00;0.00;;;;;;;;;;10377885;28;20030;-65
2023/10/31 17:39:59;;;;;;;0.00;0.00;;;;;;;;;;10379285;28;20026;-65
2023/10/31 17:44:59;;;;;;;0.00;0.00;;;;;;;;;;10377522;28;20018;-66
2023/10/31 17:50:00;;;;;;;0.00;0.00;;;;;;;;;;10386141;28;20025;-65
2023/10/31 17:55:00;;;;;;;0.00;0.00;;;;;;;;;;10370421;28;20127;-65
2023/10/31 18:00:01;;;;;;;0.00;0.00;;;;;;;;;;10378347;28;20088;-66
2023/10/31 18:05:04;;;;;;;0.00;0.00;;;;;;;;;;10382977;28;20018;-66
2023/10/31 18:10:04;;;;;;;0.00;0.00;;;;;;;;;;10388357;28;20030;-66
2023/10/31 18:15:05;;;;;;;0.00;0.00;;;;;;;;;;10386137;28;20052;-66
2023/10/31 18:20:06;;;;;;;0.00;0.00;;;;;;;;;;10383862;28;20021;-65
2023/10/31 18:25:06;;;;;;;0.00;0.00;;;;;;;;;;10391722;28;20441;-65
2023/10/31 18:30:08;;;;;;;0.00;0.00;;;;;;;;;;10379688;28;20022;-66
2023/10/31 18:35:08;;;;;;;0.00;0.00;;;;;;;;;;10388999;28;20013;-65
2023/10/31 18:40:08;;;;;;;0.00;0.00;;;;;;;;;;10380939;28;20095;-66
2023/10/31 18:45:13;;;;;;;0.00;0.00;;;;;;;;;;10379329;28;20108;-66
2023/10/31 18:50:13;;;;;;;0.00;0.00;;;;;;;;;;10385763;28;20137;-65
2023/10/31 18:55:14;;;;;;;0.00;0.00;;;;;;;;;;10379460;28;20657;-66
2023/10/31 19:00:14;;;;;;;0.00;0.00;;;;;;;;;;10383140;28;20105;-66
2023/10/31 19:05:15;;;;;;;0.00;0.00;;;;;;;;;;10372955;28;20466;-66
2023/10/31 19:10:15;;;;;;;0.00;0.00;;;;;;;;;;10381213;28;20061;-66
2023/10/31 19:15:15;;;;;;;0.00;0.00;;;;;;;;;;10381471;28;20029;-66
2023/10/31 19:20:15;;;;;;;0.00;0.00;;;;;;;;;;10380042;28;20029;-66
2023/10/31 19:25:16;;;;;;;0.00;0.00;;;;;;;;;;10386015;28;20017;-66
2023/10/31 19:30:16;;;;;;;0.00;0.00;;;;;;;;;;10376208;28;20367;-66
2023/10/31 19:35:16;;;;;;;0.00;0.00;;;;;;;;;;10381579;28;20017;-67
2023/10/31 19:40:20;;;;;;;0.00;0.00;;;;;;;;;;10386011;28;20104;-66
2023/10/31 19:45:20;;;;;;;0.00;0.00;;;;;;;;;;10376453;28;20031;-66
2023/10/31 19:50:20;;;;;;;0.00;0.00;;;;;;;;;;10378081;28;20101;-65
2023/10/31 19:55:20;;;;;;;0.00;0.00;;;;;;;;;;10371828;28;20083;-66
2023/10/31 20:00:24;;;;;;;0.10;0.10;;;;;;;;;;10377211;28;20063;-66
2023/10/31 20:05:24;;;;;;;0.00;0.00;;;;;;;;;;10384806;28;20044;-67
2023/10/31 20:10:24;;;;;;;0.00;0.00;;;;;;;;;;10377909;28;20046;-66
2023/10/31 20:15:24;;;;;;;0.00;0.00;;;;;;;;;;10381364;28;20056;-66
2023/10/31 20:20:25;;;;;;;0.00;0.00;;;;;;;;;;10375347;28;20025;-67
2023/10/31 20:25:25;;;;;;;0.00;0.00;;;;;;;;;;10379117;28;20097;-66
2023/10/31 20:30:28;;;;;;;0.00;0.00;;;;;;;;;;10375742;28;20018;-67
2023/10/31 20:35:28;;;;;;;0.00;0.00;;;;;;;;;;10365300;28;20027;-67
2023/10/31 20:40:30;;;;;;;0.00;0.00;;;;;;;;;;10379765;28;20013;-67
2023/10/31 20:45:30;;;;;;;0.00;0.00;;;;;;;;;;10369994;28;20269;-67
2023/10/31 20:50:30;;;;;;;0.00;0.00;;;;;;;;;;10379975;28;20021;-67
2023/10/31 20:55:31;;;;;;;0.00;0.00;;;;;;;;;;10373799;28;20022;-67
2023/10/31 21:00:31;;;;;;;0.00;0.00;;;;;;;;;;10374997;28;20200;-67
2023/10/31 21:05:35;;;;;;;0.00;0.00;;;;;;;;;;10382154;28;20036;-66
2023/10/31 21:10:35;;;;;;;0.00;0.00;;;;;;;;;;10381310;28;20022;-67
2023/10/31 21:15:35;;;;;;;0.00;0.00;;;;;;;;;;10386939;28;20464;-67
2023/10/31 21:20:36;;;;;;;0.00;0.00;;;;;;;;;;10373850;28;20443;-67
2023/10/31 21:25:37;;;;;;;0.00;0.00;;;;;;;;;;10383746;28;20060;-66
2023/10/31 21:30:38;;;;;;;0.00;0.00;;;;;;;;;;10378117;28;20029;-66
2023/10/31 21:35:38;;;;;;;0.00;0.00;;;;;;;;;;10384301;28;20028;-66
2023/10/31 21:40:38;;;;;;;0.10;0.10;;;;;;;;;;10377054;28;20506;-66
2023/10/31 21:45:38;;;;;;;0.00;0.00;;;;;;;;;;10366450;28;20466;-66
2023/10/31 21:50:38;;;;;;;0.10;0.10;;;;;;;;;;10376302;28;20033;-66
2023/10/31 21:55:39;;;;;;;0.00;0.00;;;;;;;;;;10382817;28;20041;-66
2023/10/31 22:00:39;;;;;;;0.00;0.00;;;;;;;;;;10382583;28;20017;-66
2023/10/31 22:05:40;;;;;;;0.00;0.00;;;;;;;;;;10377386;28;20037;-66
2023/10/31 22:10:40;;;;;;;0.00;0.00;;;;;;;;;;10386262;28;20013;-66
2023/10/31 22:15:40;;;;;;;0.08;0.08;;;;;;;;;;10381171;28;20018;-67
2023/10/31 22:20:41;;;;;;;0.00;0.00;;;;;;;;;;10376235;28;20025;-67
2023/10/31 22:25:42;;;;;;;0.05;0.05;;;;;;;;;;10372537;28;20506;-67
2023/10/31 22:30:42;;;;;;;0.00;0.00;;;;;;;;;;10380977;28;20017;-67
2023/10/31 22:35:42;;;;;;;0.00;0.00;;;;;;;;;;10369815;28;20084;-66
2023/10/31 22:40:42;;;;;;;0.00;0.00;;;;;;;;;;10380581;28;20018;-66
2023/10/31 22:45:42;;;;;;;0.00;0.00;;;;;;;;;;10375169;28;20071;-66
2023/10/31 22:50:43;;;;;;;0.00;0.00;;;;;;;;;;10370601;28;20010;-66
2023/10/31 22:55:43;;;;;;;0.00;0.00;;;;;;;;;;10379466;28;20022;-66
2023/10/31 23:00:43;;;;;;;0.00;0.00;;;;;;;;;;10379963;28;20028;-67
2023/10/31 23:05:44;;;;;;;0.00;0.00;;;;;;;;;;10367822;28;20427;-66
2023/10/31 23:10:45;;;;;;;0.00;0.00;;;;;;;;;;10365916;28;20025;-66
2023/10/31 23:15:46;;;;;;;0.10;0.10;;;;;;;;;;10380207;28;20017;-66
2023/10/31 23:20:46;;;;;;;0.00;0.00;;;;;;;;;;10374898;28;20022;-67
2023/10/31 23:25:47;;;;;;;0.00;0.00;;;;;;;;;;10381033;28;20400;-67
2023/10/31 23:30:47;;;;;;;0.00;0.00;;;;;;;;;;10376111;28;20010;-66
2023/10/31 23:35:47;;;;;;;0.10;0.10;;;;;;;;;;10370914;28;20018;-67
2023/10/31 23:40:47;;;;;;;0.00;0.00;;;;;;;;;;10370911;28;20014;-67
2023/10/31 23:45:47;;;;;;;0.00;0.00;;;;;;;;;;10370448;28;20103;-67
2023/10/31 23:50:47;;;;;;;0.00;0.00;;;;;;;;;;10366275;28;20073;-66
2023/10/31 23:55:48;;;;;;;0.00;0.00;;;;;;;;;;10358921;28;20026;-67
